Time;durP1;ratioP1;P1;durP2;ratioP2;P2;SDS_P1;SDS_P2;PMS_P1;PMS_P2;Temp;Humidity;BMP_temperature;BMP_pressure;BME280_temperature;BME280_humidity;BME280_pressure;Samples;Min_cycle;Max_cycle;Signal;HPM_P1;HPM_P2
2021/03/05 00:01:19;;;;;;;10.10;4.70;;;;;;;24.02;36.12;99324.47;4484261;32;34828;-61
2021/03/05 00:03:46;;;;;;;11.98;4.75;;;;;;;24.01;36.20;99321.94;4484045;32;33355;-57
2021/03/05 00:06:13;;;;;;;10.05;4.65;;;;;;;24.00;36.13;99317.56;4483927;32;34257;-61
2021/03/05 00:08:40;;;;;;;13.00;4.40;;;;;;;24.00;36.18;99314.84;4484217;32;33859;-64
2021/03/05 00:11:08;;;;;;;17.27;5.05;;;;;;;23.99;36.18;99315.94;4484252;32;33713;-62
2021/03/05 00:13:35;;;;;;;8.05;4.35;;;;;;;23.98;36.23;99309.66;4484151;32;33687;-61
2021/03/05 00:16:02;;;;;;;6.85;4.22;;;;;;;23.98;36.21;99306.09;4484020;32;34830;-58
2021/03/05 00:18:30;;;;;;;10.38;4.45;;;;;;;23.97;36.33;99308.00;4482928;32;34493;-61
2021/03/05 00:20:57;;;;;;;13.15;4.97;;;;;;;23.96;36.43;99306.31;4475486;31;34632;-59
2021/03/05 00:23:24;;;;;;;13.07;4.45;;;;;;;23.95;36.44;99304.69;4483220;31;34395;-61
2021/03/05 00:26:01;;;;;;;11.93;4.55;;;;;;;23.95;36.20;99299.22;4481427;32;33037;-59
2021/03/05 00:28:28;;;;;;;9.52;5.00;;;;;;;23.96;36.25;99298.16;4482841;32;33466;-55
2021/03/05 00:30:55;;;;;;;11.73;5.12;;;;;;;23.97;36.07;99298.97;4483670;32;34645;-50
2021/03/05 00:33:22;;;;;;;11.25;4.93;;;;;;;23.97;35.99;99290.81;4483838;32;34799;-51
2021/03/05 00:35:54;;;;;;;13.82;4.82;;;;;;;23.95;35.99;99299.22;4484029;32;33660;-54
2021/03/05 00:38:22;;;;;;;10.73;4.90;;;;;;;23.94;36.04;99278.50;4483865;32;33760;-58
2021/03/05 00:40:49;;;;;;;11.70;4.87;;;;;;;23.93;36.08;99279.59;4483963;32;33858;-60
2021/03/05 00:43:16;;;;;;;9.85;5.37;;;;;;;23.93;36.10;99285.03;4483768;32;34469;-63
2021/03/05 00:45:43;;;;;;;12.50;5.70;;;;;;;23.92;36.11;99277.91;4483615;32;33437;-59
2021/03/05 00:48:11;;;;;;;13.48;5.22;;;;;;;23.91;36.15;99277.06;4484186;32;34532;-57
2021/03/05 00:50:39;;;;;;;9.20;5.40;;;;;;;23.90;36.14;99282.78;4483828;32;34996;-53
2021/03/05 00:53:09;;;;;;;11.68;5.07;;;;;;;23.89;36.18;99290.13;4483730;32;33576;-59
2021/03/05 00:55:36;;;;;;;11.52;4.93;;;;;;;23.89;36.22;99294.75;4483867;32;33278;-52
2021/03/05 00:58:05;;;;;;;11.00;5.30;;;;;;;23.88;36.20;99285.75;4483897;32;34704;-55
2021/03/05 01:00:32;;;;;;;9.00;4.55;;;;;;;23.87;36.20;99289.53;4483821;32;34559;-60
2021/03/05 01:02:59;;;;;;;9.32;5.07;;;;;;;23.87;36.23;99299.59;4483709;32;34691;-62
2021/03/05 01:05:28;;;;;;;7.47;4.30;;;;;;;23.86;36.29;99284.31;4483694;32;33418;-57
2021/03/05 01:07:58;;;;;;;10.18;5.10;;;;;;;23.85;36.32;99288.94;4483980;32;33637;-58
2021/03/05 01:10:28;;;;;;;10.27;4.80;;;;;;;23.86;36.31;99295.22;4493174;31;33961;-60
2021/03/05 01:12:56;;;;;;;10.13;4.70;;;;;;;23.85;36.38;99285.41;4474304;32;32831;-57
2021/03/05 01:15:23;;;;;;;9.77;5.28;;;;;;;23.83;36.31;99276.66;4488217;31;33453;-58
2021/03/05 01:17:51;;;;;;;10.25;5.20;;;;;;;23.83;36.33;99263.03;4487836;31;33728;-61
2021/03/05 01:20:20;;;;;;;10.88;4.87;;;;;;;23.82;36.53;99261.34;4483375;32;34727;-60
2021/03/05 01:22:47;;;;;;;10.13;4.40;;;;;;;23.82;36.45;99274.97;4483300;32;33929;-58
2021/03/05 01:25:16;;;;;;;10.55;5.07;;;;;;;23.83;36.49;99263.03;4483490;32;34258;-58
2021/03/05 01:27:43;;;;;;;10.70;4.75;;;;;;;23.81;36.49;99265.97;4483279;32;34619;-60
2021/03/05 01:30:11;;;;;;;8.23;4.90;;;;;;;23.81;36.54;99268.72;4483448;32;33775;-58
2021/03/05 01:32:38;;;;;;;10.52;4.72;;;;;;;23.84;36.37;99256.50;4483369;32;33741;-60
2021/03/05 01:35:11;;;;;;;10.07;4.68;;;;;;;23.82;36.48;99256.72;4483224;32;33430;-60
2021/03/05 01:37:38;;;;;;;10.60;4.85;;;;;;;23.83;36.60;99258.41;4485156;32;33541;-56
2021/03/05 01:40:09;;;;;;;9.32;4.22;;;;;;;23.93;36.59;99252.34;4485129;32;33900;-60
2021/03/05 01:42:36;;;;;;;8.25;4.03;;;;;;;24.07;36.48;99241.97;4485397;32;33428;-58
2021/03/05 01:45:06;;;;;;;10.57;4.55;;;;;;;24.26;36.31;99250.75;4485196;32;33367;-58
2021/03/05 01:47:33;;;;;;;6.75;4.07;;;;;;;24.41;36.13;99251.88;4485307;32;33792;-57
2021/03/05 01:50:00;;;;;;;9.88;5.15;;;;;;;24.59;35.86;99253.56;4484977;32;34565;-55
2021/03/05 01:52:27;;;;;;;8.00;3.95;;;;;;;24.75;35.69;99242.88;4485116;32;35021;-58
2021/03/05 01:54:56;;;;;;;7.60;3.80;;;;;;;24.91;35.48;99247.50;4485137;32;33354;-60
2021/03/05 01:57:22;;;;;;;9.32;4.32;;;;;;;25.05;35.32;99245.25;4484983;32;33872;-58
2021/03/05 01:59:51;;;;;;;8.90;4.35;;;;;;;25.17;35.15;99246.00;4483963;32;33615;-62
2021/03/05 02:02:18;;;;;;;7.80;4.07;;;;;;;25.28;35.00;99241.53;4483847;32;34218;-60
2021/03/05 02:04:45;;;;;;;9.38;4.40;;;;;;;25.36;34.87;99241.06;4484968;32;33201;-68
2021/03/05 02:07:12;;;;;;;8.55;4.50;;;;;;;25.43;34.75;99244.47;4470818;32;34568;-67
2021/03/05 02:09:39;;;;;;;10.60;4.25;;;;;;;25.50;34.66;99241.53;4485010;32;33948;-62
2021/03/05 02:12:21;;;;;;;8.38;4.05;;;;;;;26.14;33.76;99228.91;4523454;31;135816;-63
2021/03/05 02:14:48;;;;;;;14.43;4.50;;;;;;;26.14;33.76;99228.91;4511883;31;33282;-63
2021/03/05 02:17:26;;;;;;;9.13;3.95;;;;;;;25.60;34.48;99233.44;4510430;31;33502;-58
2021/03/05 02:20:06;;;;;;;7.80;4.00;;;;;;;25.61;34.49;99225.03;4510576;31;34664;-56
2021/03/05 02:23:07;;;;;;;6.87;4.20;;;;;;;25.60;34.56;99228.84;4511646;31;33530;-65
2021/03/05 02:25:40;;;;;;;7.55;3.90;;;;;;;25.63;34.59;99219.28;4510464;31;33268;-63
2021/03/05 02:28:31;;;;;;;9.25;4.03;;;;;;;25.59;34.66;99215.41;4504740;31;33900;-64
2021/03/05 02:31:04;;;;;;;7.35;4.07;;;;;;;25.58;34.76;99214.59;4494394;32;33666;-61
2021/03/05 02:33:37;;;;;;;7.28;4.05;;;;;;;25.54;34.85;99224.37;4494820;31;33306;-59
2021/03/05 02:36:06;;;;;;;6.97;3.92;;;;;;;25.52;34.96;99214.81;4495964;31;32971;-52
2021/03/05 02:38:34;;;;;;;7.13;4.67;;;;;;;25.49;35.00;99218.03;4481892;32;33734;-59
2021/03/05 02:41:02;;;;;;;7.35;4.10;;;;;;;25.48;35.02;99208.19;4481573;32;33823;-58
2021/03/05 02:43:29;;;;;;;6.40;3.75;;;;;;;25.45;35.05;99213.06;4481587;32;34253;-59
2021/03/05 02:45:59;;;;;;;8.70;3.67;;;;;;;25.42;35.18;99219.06;4481546;32;33197;-58
2021/03/05 02:48:46;;;;;;;8.55;3.25;;;;;;;25.38;35.15;99214.34;4495587;32;33612;-60
2021/03/05 02:51:14;;;;;;;8.85;3.83;;;;;;;25.35;35.19;99214.84;4494562;31;33955;-59
2021/03/05 02:53:42;;;;;;;7.57;3.85;;;;;;;25.33;35.22;99200.63;4481371;32;34435;-57
2021/03/05 02:56:16;;;;;;;7.32;4.00;;;;;;;25.31;35.26;99209.06;4494320;32;33317;-59
2021/03/05 02:58:47;;;;;;;7.87;4.18;;;;;;;25.28;35.35;99200.56;4495545;32;33753;-60
2021/03/05 03:01:14;;;;;;;7.50;4.20;;;;;;;25.24;35.46;99202.97;4494403;32;33645;-66
2021/03/05 03:03:41;;;;;;;7.82;3.70;;;;;;;25.23;35.20;99206.78;4494296;32;33493;-68
2021/03/05 03:06:12;;;;;;;6.80;3.85;;;;;;;25.20;35.37;99207.28;4494311;32;34012;-64
2021/03/05 03:08:39;;;;;;;10.70;3.83;;;;;;;25.18;35.38;99201.22;4481489;32;33845;-67
2021/03/05 03:11:06;;;;;;;11.75;3.87;;;;;;;25.17;35.47;99203.13;4495288;31;34093;-62
2021/03/05 03:13:34;;;;;;;6.50;3.60;;;;;;;25.14;35.56;99200.13;4494224;32;33393;-67
2021/03/05 03:16:02;;;;;;;10.38;4.60;;;;;;;25.10;35.60;99205.25;4487859;32;33292;-56
2021/03/05 03:18:30;;;;;;;6.57;3.97;;;;;;;25.08;35.71;99201.91;4489959;32;33619;-68
2021/03/05 03:20:58;;;;;;;8.63;3.95;;;;;;;25.06;35.75;99208.69;4494073;31;33959;-55
2021/03/05 03:23:25;;;;;;;7.00;3.65;;;;;;;25.03;35.77;99203.72;4485792;32;34643;-65
2021/03/05 03:25:52;;;;;;;6.68;3.75;;;;;;;25.00;35.80;99205.06;4470529;32;33972;-59
2021/03/05 03:28:19;;;;;;;7.85;4.07;;;;;;;24.98;35.87;99206.38;4483764;31;33821;-50
2021/03/05 03:30:46;;;;;;;10.25;4.15;;;;;;;24.96;35.87;99195.72;4484586;32;33872;-62
2021/03/05 03:33:13;;;;;;;7.90;3.47;;;;;;;24.94;35.85;99206.88;4484777;32;34688;-57
2021/03/05 03:35:41;;;;;;;6.95;4.05;;;;;;;24.92;35.89;99203.59;4485032;32;34235;-53
2021/03/05 03:38:10;;;;;;;7.03;3.92;;;;;;;24.89;36.06;99204.06;4483326;32;33771;-58
2021/03/05 03:40:37;;;;;;;8.15;3.80;;;;;;;24.87;36.05;99197.25;4484721;32;33758;-62
2021/03/05 03:43:05;;;;;;;9.70;3.87;;;;;;;24.84;35.98;99193.09;4484707;32;34226;-59
2021/03/05 03:45:32;;;;;;;10.32;3.75;;;;;;;24.82;36.05;99198.00;4484863;32;33104;-55
2021/03/05 03:47:59;;;;;;;9.68;3.70;;;;;;;24.79;36.14;99201.22;4484745;32;33542;-57
2021/03/05 03:50:32;;;;;;;6.35;3.97;;;;;;;24.78;36.12;99196.00;4483507;32;33648;-51
2021/03/05 03:53:23;;;;;;;8.95;3.72;;;;;;;24.77;36.10;99194.38;4484655;32;33750;-54
2021/03/05 03:55:52;;;;;;;8.27;3.97;;;;;;;24.77;36.10;99195.19;4480952;32;33193;-65
2021/03/05 03:58:25;;;;;;;9.73;4.20;;;;;;;24.74;36.14;99200.31;4484686;32;33754;-53
2021/03/05 04:00:55;;;;;;;10.00;3.97;;;;;;;24.70;36.30;99197.25;4484470;32;33551;-53
2021/03/05 04:03:27;;;;;;;9.18;4.43;;;;;;;24.66;36.27;99191.47;4483182;32;33716;-61
2021/03/05 04:05:55;;;;;;;8.63;3.92;;;;;;;24.66;36.20;99186.00;4483587;32;33361;-53
2021/03/05 04:08:37;;;;;;;9.13;4.00;;;;;;;24.64;36.21;99193.63;4471428;32;34481;-60
2021/03/05 04:11:06;;;;;;;8.65;3.67;;;;;;;24.63;36.26;99197.44;4482645;32;33651;-57
2021/03/05 04:13:35;;;;;;;7.12;4.20;;;;;;;24.60;36.25;99192.47;4470454;32;34298;-64
2021/03/05 04:16:02;;;;;;;9.15;3.80;;;;;;;24.59;36.25;99187.25;4483111;32;33235;-56
2021/03/05 04:18:39;;;;;;;8.55;4.05;;;;;;;24.58;36.24;99185.63;4470305;32;34573;-54
2021/03/05 04:21:41;;;;;;;7.75;3.50;;;;;;;24.57;36.24;99190.22;4484457;32;33797;-55
2021/03/05 04:24:09;;;;;;;6.82;3.80;;;;;;;24.58;36.29;99185.63;4425286;32;32939;-54
2021/03/05 04:26:36;;;;;;;8.98;3.62;;;;;;;24.53;36.31;99186.37;4477689;31;34319;-54
2021/03/05 04:29:04;;;;;;;8.45;3.80;;;;;;;24.50;36.32;99181.41;4484500;32;33863;-51
2021/03/05 04:31:31;;;;;;;5.35;3.35;;;;;;;24.49;36.33;99184.38;4484349;32;34807;-62
2021/03/05 04:33:59;;;;;;;7.10;3.42;;;;;;;24.47;36.29;99181.88;4483268;32;34548;-55
2021/03/05 04:36:27;;;;;;;7.65;3.83;;;;;;;24.47;36.25;99183.78;4484483;32;34325;-58
2021/03/05 04:39:02;;;;;;;8.18;3.58;;;;;;;24.44;36.27;99179.66;4484135;32;34894;-58
2021/03/05 04:41:29;;;;;;;11.48;4.30;;;;;;;24.45;36.19;99185.94;4484198;32;34916;-57
2021/03/05 04:43:58;;;;;;;7.55;3.37;;;;;;;24.43;36.27;99183.44;4484568;32;33653;-61
2021/03/05 04:46:26;;;;;;;8.63;4.12;;;;;;;24.40;36.21;99183.97;4484135;32;33456;-55
2021/03/05 04:48:54;;;;;;;6.80;3.45;;;;;;;24.39;36.28;99179.59;4484107;32;33757;-55
2021/03/05 04:51:21;;;;;;;8.80;3.90;;;;;;;24.37;36.24;99179.00;4484151;32;33581;-60
2021/03/05 04:53:49;;;;;;;6.18;3.28;;;;;;;24.36;36.27;99189.06;4484386;32;33625;-60
2021/03/05 04:56:16;;;;;;;7.72;3.67;;;;;;;24.35;36.25;99186.56;4484058;32;33312;-61
2021/03/05 04:58:43;;;;;;;5.47;3.30;;;;;;;24.34;36.29;99185.75;4484204;32;33857;-66
2021/03/05 05:01:10;;;;;;;9.65;3.83;;;;;;;24.32;36.29;99190.63;4484216;32;33666;-59
2021/03/05 05:03:37;;;;;;;8.43;4.03;;;;;;;24.32;36.29;99185.16;4484060;32;34487;-60
2021/03/05 05:06:04;;;;;;;6.47;3.53;;;;;;;24.31;36.34;99186.25;4484064;32;33422;-63
2021/03/05 05:08:32;;;;;;;9.02;3.75;;;;;;;24.30;36.43;99186.50;4484164;32;33896;-55
2021/03/05 05:10:59;;;;;;;8.60;3.67;;;;;;;24.30;36.38;99181.03;4483987;32;33908;-59
2021/03/05 05:13:28;;;;;;;9.48;3.70;;;;;;;24.28;36.49;99183.16;4484039;32;33627;-57
2021/03/05 05:15:56;;;;;;;6.40;3.50;;;;;;;24.27;36.42;99187.81;4484386;32;32982;-59
2021/03/05 05:18:23;;;;;;;7.05;3.60;;;;;;;24.26;36.41;99182.59;4482634;32;33733;-59
2021/03/05 05:20:50;;;;;;;8.07;3.25;;;;;;;24.25;36.47;99178.19;4484085;32;33688;-57
2021/03/05 05:23:17;;;;;;;6.12;3.42;;;;;;;24.24;36.42;99177.37;4484176;32;33710;-68
2021/03/05 05:25:44;;;;;;;8.73;3.55;;;;;;;24.22;36.46;99176.00;4483862;32;33605;-60
2021/03/05 05:28:11;;;;;;;6.75;3.35;;;;;;;24.23;36.42;99174.91;4483946;31;34020;-57
2021/03/05 05:30:39;;;;;;;6.57;3.58;;;;;;;24.21;36.51;99171.63;4483742;32;33852;-56
2021/03/05 05:33:06;;;;;;;6.37;3.40;;;;;;;24.20;36.45;99178.94;4482539;32;34357;-50
2021/03/05 05:35:33;;;;;;;9.57;3.67;;;;;;;24.19;36.49;99180.84;4483928;32;33376;-49
2021/03/05 05:38:00;;;;;;;8.05;3.60;;;;;;;24.18;36.48;99175.66;4483967;32;33887;-55
2021/03/05 05:40:29;;;;;;;7.62;3.58;;;;;;;24.17;36.45;99183.00;4483762;32;34580;-55
2021/03/05 05:42:57;;;;;;;8.40;4.20;;;;;;;24.17;36.50;99190.34;4483840;32;33396;-51
2021/03/05 05:45:24;;;;;;;7.10;3.92;;;;;;;24.17;36.46;99190.34;4483451;32;34506;-54
2021/03/05 05:47:53;;;;;;;7.15;3.17;;;;;;;24.14;36.50;99185.37;4483876;32;33472;-52
2021/03/05 05:50:21;;;;;;;6.40;3.67;;;;;;;24.12;36.53;99196.53;4469569;32;33841;-53
2021/03/05 05:52:52;;;;;;;7.28;3.30;;;;;;;24.12;36.56;99195.72;4482473;32;33392;-60
2021/03/05 05:55:19;;;;;;;5.05;3.25;;;;;;;24.11;36.53;99189.44;4470169;32;33231;-53
2021/03/05 05:57:46;;;;;;;11.50;3.40;;;;;;;24.10;36.48;99197.84;4483653;32;34500;-54
2021/03/05 06:00:14;;;;;;;13.52;3.85;;;;;;;24.09;36.56;99194.31;4482315;32;33893;-56
2021/03/05 06:02:43;;;;;;;7.12;3.42;;;;;;;24.07;36.61;99196.47;4479695;32;34360;-51
2021/03/05 06:05:14;;;;;;;6.60;3.55;;;;;;;24.07;36.63;99195.63;4483449;32;33455;-52
2021/03/05 06:07:42;;;;;;;8.70;3.70;;;;;;;24.06;36.66;99205.72;4483347;32;33947;-54
2021/03/05 06:10:11;;;;;;;5.97;3.30;;;;;;;24.06;36.66;99204.88;4482275;32;33845;-51
2021/03/05 06:12:42;;;;;;;8.60;3.67;;;;;;;24.03;36.62;99211.66;4483310;32;34347;-54
2021/03/05 06:15:10;;;;;;;7.00;3.55;;;;;;;24.04;36.65;99215.19;4483331;32;34277;-54
2021/03/05 06:17:41;;;;;;;6.07;3.53;;;;;;;24.03;36.69;99216.28;4483128;32;34448;-56
2021/03/05 06:20:10;;;;;;;8.48;3.80;;;;;;;24.01;36.64;99219.22;4483401;32;33988;-53
2021/03/05 06:22:38;;;;;;;7.40;3.62;;;;;;;24.01;36.70;99218.41;4483355;32;34326;-53
2021/03/05 06:25:06;;;;;;;5.95;3.30;;;;;;;24.01;36.68;99218.41;4481935;32;33047;-59
2021/03/05 06:27:34;;;;;;;7.22;3.12;;;;;;;23.99;36.70;99217.81;4483414;31;34645;-56
2021/03/05 06:30:00;;;;;;;6.70;3.55;;;;;;;23.99;36.72;99221.38;4483343;32;33594;-51
2021/03/05 06:32:41;;;;;;;7.15;3.75;;;;;;;23.98;36.70;99227.06;4483144;32;33670;-58
2021/03/05 06:35:09;;;;;;;7.28;3.22;;;;;;;23.99;36.73;99242.34;4483038;32;34383;-55
2021/03/05 06:37:44;;;;;;;5.15;2.97;;;;;;;23.96;36.75;99243.66;4483002;32;34699;-57
2021/03/05 06:40:28;;;;;;;8.15;3.75;;;;;;;23.95;36.72;99247.47;4481818;32;33815;-55
2021/03/05 06:42:56;;;;;;;7.30;3.67;;;;;;;23.95;36.73;99247.47;4482990;32;34698;-50
2021/03/05 06:45:34;;;;;;;5.55;3.10;;;;;;;23.93;36.72;99253.16;4481993;32;33280;-52
2021/03/05 06:48:15;;;;;;;8.13;3.80;;;;;;;23.94;36.79;99256.72;4482894;32;33774;-55
2021/03/05 06:50:43;;;;;;;7.95;3.30;;;;;;;23.92;36.70;99259.69;4482882;32;33947;-56
2021/03/05 06:53:20;;;;;;;8.57;3.83;;;;;;;23.90;36.86;99258.25;4482797;32;33595;-56
2021/03/05 06:55:47;;;;;;;6.75;3.30;;;;;;;23.92;36.91;99261.56;4483216;32;33366;-54
2021/03/05 06:58:14;;;;;;;6.93;3.37;;;;;;;23.91;37.02;99270.81;4484029;32;34278;-55
2021/03/05 07:00:41;;;;;;;8.90;3.28;;;;;;;23.90;36.95;99269.16;4485290;32;33955;-54
2021/03/05 07:03:21;;;;;;;7.60;3.40;;;;;;;23.88;36.99;99255.78;4483718;32;33836;-58
2021/03/05 07:05:54;;;;;;;;;;;;;;;23.90;36.87;99259.09;4485271;32;33470;-54
2021/03/05 07:08:40;;;;;;;6.40;3.50;;;;;;;23.97;36.80;99258.97;4485062;32;34020;-52
2021/03/05 07:11:08;;;;;;;6.70;2.90;;;;;;;23.90;36.89;99267.25;4484913;32;34608;-51
2021/03/05 07:13:51;;;;;;;10.27;3.87;;;;;;;23.86;37.01;99274.25;4483853;32;33231;-52
2021/03/05 07:16:18;;;;;;;8.52;3.33;;;;;;;23.88;36.98;99271.31;4485182;32;33322;-52
2021/03/05 07:18:46;;;;;;;7.78;3.72;;;;;;;23.85;37.03;99275.34;4484965;32;33534;-54
2021/03/05 07:21:18;;;;;;;5.82;3.45;;;;;;;23.85;36.88;99272.59;4484878;32;33817;-56
2021/03/05 07:23:45;;;;;;;9.65;3.95;;;;;;;23.84;36.89;99261.97;4484803;32;34722;-53
2021/03/05 07:26:12;;;;;;;10.07;3.33;;;;;;;23.85;36.90;99266.34;4483573;32;33405;-53
2021/03/05 07:28:42;;;;;;;8.18;3.72;;;;;;;23.84;36.97;99264.69;4483461;32;34930;-55
2021/03/05 07:31:16;;;;;;;8.73;3.45;;;;;;;23.84;37.11;99259.22;4483662;32;33769;-50
2021/03/05 07:33:44;;;;;;;9.77;3.17;;;;;;;23.85;36.93;99260.88;4483431;32;34346;-52
2021/03/05 07:36:13;;;;;;;8.50;2.95;;;;;;;23.84;36.97;99248.34;4470530;32;33700;-55
2021/03/05 07:38:40;;;;;;;5.72;3.47;;;;;;;23.84;37.03;99259.22;4484750;32;34589;-54
2021/03/05 07:41:09;;;;;;;8.48;3.80;;;;;;;23.83;37.05;99257.59;4484805;32;33583;-57
2021/03/05 07:43:37;;;;;;;11.40;3.30;;;;;;;23.85;37.07;99255.44;4483560;32;33412;-57
2021/03/05 07:46:05;;;;;;;9.48;3.50;;;;;;;23.83;36.93;99246.69;4484353;32;33261;-55
2021/03/05 07:48:32;;;;;;;10.40;3.60;;;;;;;23.84;36.99;99253.78;4464294;32;34974;-56
2021/03/05 07:50:59;;;;;;;6.60;3.53;;;;;;;23.83;37.06;99252.13;4483780;32;34358;-60
2021/03/05 07:53:28;;;;;;;7.10;3.45;;;;;;;23.83;36.98;99252.13;4476387;32;33371;-53
2021/03/05 07:55:54;;;;;;;7.78;2.92;;;;;;;23.82;36.90;99256.72;4467647;32;32422;-52
2021/03/05 07:58:44;;;;;;;7.68;3.72;;;;;;;23.82;36.99;99254.00;4484033;32;33803;-52
2021/03/05 08:01:11;;;;;;;7.50;3.20;;;;;;;23.85;36.90;99258.16;4483135;32;34536;-50
2021/03/05 08:03:52;;;;;;;7.60;3.10;;;;;;;23.82;36.95;99264.09;4483763;31;34552;-48
2021/03/05 08:06:28;;;;;;;7.65;3.30;;;;;;;23.82;37.13;99269.53;4483466;32;32990;-57
2021/03/05 08:09:09;;;;;;;8.18;3.70;;;;;;;23.83;36.82;99266.59;4473463;32;33659;-61
2021/03/05 08:11:38;;;;;;;;;;;;;;;23.82;37.08;99261.34;4484885;32;33927;-56
2021/03/05 08:14:25;;;;;;;12.07;3.70;;;;;;;23.88;36.83;99252.25;4483074;32;34054;-56
2021/03/05 08:16:53;;;;;;;13.70;4.22;;;;;;;23.77;36.62;99267.53;4484527;32;34263;-53
2021/03/05 08:19:20;;;;;;;10.90;3.92;;;;;;;23.72;36.47;99263.88;4484395;32;33535;-54
2021/03/05 08:21:50;;;;;;;13.57;4.07;;;;;;;23.74;36.13;99265.31;4484508;32;33948;-51
2021/03/05 08:24:20;;;;;;;14.70;4.10;;;;;;;23.75;36.46;99279.75;4484414;32;34388;-51
2021/03/05 08:27:01;;;;;;;7.93;3.60;;;;;;;23.75;36.26;99258.78;4484319;32;34302;-57
2021/03/05 08:29:46;;;;;;;10.93;3.75;;;;;;;23.79;36.41;99268.13;4484349;32;34823;-51
2021/03/05 08:32:38;;;;;;;10.07;4.22;;;;;;;23.82;36.47;99272.25;4484323;32;33825;-53
2021/03/05 08:35:16;;;;;;;9.93;3.85;;;;;;;23.88;36.62;99274.84;4484103;32;34706;-50
2021/03/05 08:37:45;;;;;;;10.35;4.28;;;;;;;23.96;36.69;99275.53;4484371;32;33094;-51
2021/03/05 08:40:17;;;;;;;13.30;3.62;;;;;;;24.08;36.72;99270.88;4484018;32;33816;-63
2021/03/05 08:43:08;;;;;;;8.25;3.37;;;;;;;24.24;36.39;99272.78;4484249;32;33972;-54
2021/03/05 08:45:41;;;;;;;12.48;3.53;;;;;;;24.38;36.18;99276.06;4477913;31;33649;-55
2021/03/05 08:48:09;;;;;;;9.98;3.25;;;;;;;24.54;35.93;99271.75;4484556;32;34127;-63
2021/03/05 08:50:37;;;;;;;10.80;3.72;;;;;;;24.69;35.72;99270.09;4484541;32;33788;-57
2021/03/05 08:53:14;;;;;;;11.18;3.55;;;;;;;24.83;35.55;99272.47;4483784;32;33986;-56
2021/03/05 08:55:43;;;;;;;8.73;3.15;;;;;;;24.99;35.33;99276.28;4484460;32;33770;-52
2021/03/05 08:58:14;;;;;;;8.43;3.22;;;;;;;25.13;35.14;99269.41;4483997;32;33475;-52
2021/03/05 09:00:43;;;;;;;11.45;3.62;;;;;;;25.26;34.91;99269.06;4480375;32;33753;-58
2021/03/05 09:03:16;;;;;;;14.70;3.17;;;;;;;25.36;34.81;99276.56;4492726;31;33789;-59
2021/03/05 09:05:45;;;;;;;13.70;3.15;;;;;;;25.45;34.77;99286.00;4483563;31;33814;-54
2021/03/05 09:08:12;;;;;;;12.60;3.70;;;;;;;25.53;34.71;99285.56;4484154;32;32862;-61
2021/03/05 09:10:45;;;;;;;12.75;3.53;;;;;;;25.61;34.63;99287.84;4483408;32;33842;-54
2021/03/05 09:13:17;;;;;;;13.23;3.60;;;;;;;25.70;34.58;99297.28;4483889;32;33968;-68
2021/03/05 09:15:49;;;;;;;8.75;3.08;;;;;;;25.79;34.49;99296.88;4483775;32;33692;-61
2021/03/05 09:18:18;;;;;;;11.25;3.45;;;;;;;25.89;34.39;99294.25;4483265;32;33415;-59
2021/03/05 09:20:47;;;;;;;11.48;3.37;;;;;;;26.00;34.31;99293.28;4483077;32;33940;-63
2021/03/05 09:23:26;;;;;;;11.45;3.05;;;;;;;26.11;34.18;99295.06;4483975;32;33625;-55
2021/03/05 09:26:07;;;;;;;9.53;3.20;;;;;;;26.24;34.04;99301.19;4483934;32;34585;-53
2021/03/05 09:28:36;;;;;;;;;;;;;;;26.34;33.92;99302.13;4484035;32;33321;-58
2021/03/05 09:31:03;;;;;;;9.40;2.80;;;;;;;26.54;33.65;99293.34;4483771;32;33821;-58
2021/03/05 09:33:41;;;;;;;10.35;3.40;;;;;;;26.56;33.69;99296.62;4483736;32;33895;-61
2021/03/05 09:36:16;;;;;;;7.87;3.00;;;;;;;26.63;33.66;99300.00;4483967;32;34252;-58
2021/03/05 09:38:53;;;;;;;5.60;2.87;;;;;;;26.71;33.62;99299.50;4483953;32;33279;-64
2021/03/05 09:41:24;;;;;;;14.18;3.53;;;;;;;26.81;33.54;99300.66;4483343;32;33826;-58
2021/03/05 09:44:08;;;;;;;8.68;3.00;;;;;;;26.88;33.44;99302.09;4484066;32;33918;-57
2021/03/05 09:46:39;;;;;;;7.75;2.60;;;;;;;26.99;33.29;99300.25;4483407;32;33497;-58
2021/03/05 09:49:26;;;;;;;7.62;3.75;;;;;;;27.04;33.24;99311.25;4483695;32;33884;-59
2021/03/05 09:51:53;;;;;;;11.73;3.72;;;;;;;27.12;33.17;99313.53;4483574;32;33746;-57
2021/03/05 09:54:36;;;;;;;7.47;2.70;;;;;;;27.12;33.20;99305.31;4483331;32;33869;-62
2021/03/05 09:57:04;;;;;;;13.62;3.22;;;;;;;27.20;33.03;99321.28;4467771;32;33684;-56
2021/03/05 09:59:45;;;;;;;13.27;3.37;;;;;;;27.24;33.00;99316.09;4487191;31;34256;-59
2021/03/05 10:02:18;;;;;;;27.13;4.15;;;;;;;27.25;32.43;99317.75;4470503;31;34693;-67
2021/03/05 10:04:47;;;;;;;14.10;3.62;;;;;;;27.23;32.38;99321.81;4483243;31;34398;-66
2021/03/05 10:07:15;;;;;;;9.52;3.42;;;;;;;27.16;31.98;99305.63;4489806;31;33750;-68
2021/03/05 10:09:42;;;;;;;13.00;3.72;;;;;;;27.15;31.51;99313.03;4497697;31;33404;-69
2021/03/05 10:12:10;;;;;;;8.15;3.40;;;;;;;27.13;31.02;99312.44;4498978;31;34526;-70
2021/03/05 10:14:37;;;;;;;10.55;3.33;;;;;;;27.11;30.89;99316.56;4499192;31;33896;-69
2021/03/05 10:17:14;;;;;;;14.52;3.92;;;;;;;27.06;30.78;99321.97;4498337;31;33675;-69
2021/03/05 10:19:43;;;;;;;12.43;3.70;;;;;;;27.00;30.68;99321.09;4488417;31;33421;-68
2021/03/05 10:22:11;;;;;;;12.07;3.87;;;;;;;26.96;30.67;99315.31;4487309;31;33589;-67
2021/03/05 10:24:40;;;;;;;9.77;3.50;;;;;;;26.89;30.48;99325.66;4498911;31;33995;-66
2021/03/05 10:29:57;;;;;;;10.68;3.50;;;;;;;26.79;30.57;99317.34;4498888;31;34238;-68
2021/03/05 10:32:38;;;;;;;8.00;3.20;;;;;;;26.75;30.65;99326.34;4498622;31;33767;-60
2021/03/05 10:35:09;;;;;;;8.30;3.10;;;;;;;26.67;30.48;99322.16;4499258;31;33692;-60
2021/03/05 10:37:37;;;;;;;10.88;3.35;;;;;;;26.57;30.49;99339.31;4501061;31;34393;-59
2021/03/05 10:40:06;;;;;;;8.07;3.35;;;;;;;26.55;30.44;99337.94;4501293;31;33385;-71
2021/03/05 10:42:34;;;;;;;10.20;3.10;;;;;;;26.49;30.31;99350.75;4500012;31;33799;-66
2021/03/05 10:45:01;;;;;;;9.38;3.22;;;;;;;26.42;30.46;99348.16;4501204;31;33597;-63
2021/03/05 10:47:30;;;;;;;7.85;3.42;;;;;;;26.35;30.41;99347.56;4500830;31;33435;-60
2021/03/05 10:49:57;;;;;;;7.05;3.53;;;;;;;26.31;30.50;99348.31;4499432;31;33535;-62
2021/03/05 10:52:26;;;;;;;12.48;3.80;;;;;;;26.27;30.45;99347.19;4500328;31;33501;-64
2021/03/05 10:54:53;;;;;;;9.75;3.85;;;;;;;26.19;30.57;99343.81;4489148;31;33626;-71
2021/03/05 10:57:21;;;;;;;9.48;4.18;;;;;;;26.15;30.71;99366.44;4500833;31;33605;-55
2021/03/05 10:59:49;;;;;;;9.98;4.60;;;;;;;26.08;30.75;99354.91;4492342;31;33260;-63
2021/03/05 11:02:16;;;;;;;14.80;4.72;;;;;;;26.02;30.36;99361.34;4485489;31;33781;-69
2021/03/05 11:04:44;;;;;;;20.90;5.20;;;;;;;25.94;30.79;99358.00;4483268;32;33742;-65
2021/03/05 11:07:11;;;;;;;10.57;4.70;;;;;;;25.87;30.74;99364.72;4484805;32;33801;-59
2021/03/05 11:09:39;;;;;;;13.82;4.87;;;;;;;25.84;30.68;99359.78;4484554;32;33388;-66
2021/03/05 11:12:07;;;;;;;10.73;4.72;;;;;;;25.78;30.68;99368.97;4488241;31;34577;-66
2021/03/05 11:14:34;;;;;;;11.12;4.82;;;;;;;25.74;31.14;99376.84;4499189;31;33840;-66
2021/03/05 11:17:01;;;;;;;8.85;5.37;;;;;;;25.69;30.78;99374.88;4500897;31;35035;-67
2021/03/05 11:19:29;;;;;;;12.95;5.37;;;;;;;25.63;31.16;99375.84;4487528;31;32971;-69
2021/03/05 11:21:57;;;;;;;9.63;5.55;;;;;;;25.54;31.05;99377.34;4483812;31;33904;-67
2021/03/05 11:24:24;;;;;;;14.15;6.95;;;;;;;25.52;30.68;99392.34;4483555;32;34939;-52
2021/03/05 11:26:51;;;;;;;14.50;7.22;;;;;;;25.48;30.84;99393.94;4484677;32;33829;-59
2021/03/05 11:29:18;;;;;;;19.60;8.32;;;;;;;25.46;30.59;99407.84;4484965;32;33332;-57
2021/03/05 11:31:45;;;;;;;19.30;9.15;;;;;;;25.38;30.47;99419.19;4484722;32;33848;-58
2021/03/05 11:34:13;;;;;;;17.60;8.88;;;;;;;25.37;30.24;99414.81;4479860;31;33810;-66
2021/03/05 11:36:42;;;;;;;18.42;7.78;;;;;;;25.36;30.34;99427.59;4488582;31;33853;-54
2021/03/05 11:39:09;;;;;;;22.45;7.25;;;;;;;25.34;30.50;99426.22;4484440;32;34546;-62
2021/03/05 11:41:36;;;;;;;13.02;8.27;;;;;;;25.34;30.57;99432.50;4469763;32;34609;-70
2021/03/05 11:44:16;;;;;;;17.35;7.03;;;;;;;25.33;30.74;99425.38;4468466;32;33676;-51
2021/03/05 11:46:44;;;;;;;12.43;7.03;;;;;;;25.31;30.95;99423.97;4468577;32;34417;-62
2021/03/05 11:49:11;;;;;;;16.90;7.32;;;;;;;25.30;31.16;99423.16;4468960;32;34031;-51